createdAt,value
2019-02-26T00:01:59.929Z,100282.91
2019-02-26T00:04:10.313Z,100281.19
2019-02-26T00:06:22.787Z,100282.43
2019-02-26T00:08:33.868Z,100285.84
2019-02-26T00:10:44.658Z,100295.70
2019-02-26T00:13:15.366Z,100299.56
2019-02-26T00:15:26.266Z,100297.85
2019-02-26T00:17:40.451Z,100298.69
2019-02-26T00:19:49.784Z,100297.83
2019-02-26T00:22:00.601Z,100289.67
2019-02-26T00:24:12.818Z,100293.52
2019-02-26T00:26:24.139Z,100299.97
2019-02-26T00:28:36.531Z,100293.11
2019-02-26T00:30:47.691Z,100283.28
2019-02-26T00:33:00.113Z,100289.25
2019-02-26T00:35:11.313Z,100297.00
2019-02-26T00:37:24.219Z,100289.30
2019-02-26T00:39:34.892Z,100289.73
2019-02-26T00:41:49.309Z,100287.14
2019-02-26T00:43:59.846Z,100291.84
2019-02-26T00:46:11.327Z,100290.55
2019-02-26T00:48:22.148Z,100288.42
2019-02-26T00:50:35.026Z,100284.55
2019-02-26T00:52:45.924Z,100293.96
2019-02-26T00:55:18.508Z,100293.97
2019-02-26T00:57:31.255Z,100290.94
2019-02-26T00:59:44.063Z,100286.62
2019-02-26T01:01:56.619Z,100287.90
2019-02-26T01:04:07.487Z,100287.02
2019-02-26T01:06:18.293Z,100281.44
2019-02-26T01:08:29.072Z,100284.43
2019-02-26T01:10:41.528Z,100287.43
2019-02-26T01:12:52.616Z,100282.30
2019-02-26T01:15:25.520Z,100278.88
2019-02-26T01:17:38.360Z,100280.16
2019-02-26T01:19:49.043Z,100271.17
2019-02-26T01:21:59.826Z,100269.03
2019-02-26T01:24:10.667Z,100266.47
2019-02-26T01:26:21.472Z,100263.06
2019-02-26T01:28:32.316Z,100260.52
2019-02-26T01:30:43.156Z,100254.97
2019-02-26T01:32:53.939Z,100252.84
2019-02-26T01:35:05.999Z,100250.30
2019-02-26T01:37:17.711Z,100252.03
2019-02-26T01:39:28.534Z,100255.02
2019-02-26T01:41:41.408Z,100255.00
2019-02-26T01:43:52.070Z,100254.13
2019-02-26T01:46:02.874Z,100253.23
2019-02-26T01:48:17.983Z,100248.50
2019-02-26T01:50:28.026Z,100249.34
2019-02-26T01:52:39.204Z,100248.05
2019-02-26T01:54:51.357Z,100248.45
2019-02-26T01:57:02.846Z,100245.00
2019-02-26T01:59:18.267Z,100237.67
2019-02-26T02:01:26.392Z,100242.34
2019-02-26T02:03:57.069Z,100242.30
2019-02-26T02:06:10.651Z,100242.30
2019-02-26T02:08:22.617Z,100231.62
2019-02-26T02:10:33.449Z,100232.49
2019-02-26T02:12:44.251Z,100230.39
2019-02-26T02:14:55.070Z,100234.22
2019-02-26T02:17:06.547Z,100226.03
2019-02-26T02:19:22.314Z,100223.03
2019-02-26T02:21:33.300Z,100221.75
2019-02-26T02:23:44.843Z,100218.73
2019-02-26T02:25:59.810Z,100231.08
2019-02-26T02:28:09.474Z,100229.00
2019-02-26T02:30:26.820Z,100227.70
2019-02-26T02:32:34.464Z,100226.00
2019-02-26T02:34:45.683Z,100218.32
2019-02-26T02:36:56.597Z,100215.36
2019-02-26T02:39:10.423Z,100208.95
2019-02-26T02:41:20.225Z,100211.48
2019-02-26T02:43:31.043Z,100214.02
2019-02-26T02:45:41.852Z,100208.90
2019-02-26T02:47:57.841Z,100213.60
2019-02-26T02:50:25.213Z,100205.84
2019-02-26T02:52:37.921Z,100215.30
2019-02-26T02:54:49.920Z,100212.72
2019-02-26T02:57:02.576Z,100206.31
2019-02-26T02:59:16.468Z,100209.33
2019-02-26T03:01:28.661Z,100207.94
2019-02-26T03:03:39.574Z,100211.75
2019-02-26T03:05:50.387Z,100213.86
2019-02-26T03:08:01.198Z,100215.14
2019-02-26T03:10:53.638Z,100210.02
2019-02-26T03:13:04.461Z,100212.14
2019-02-26T03:15:15.575Z,100207.89
2019-02-26T03:17:26.363Z,100207.92
2019-02-26T03:19:40.675Z,100202.82
2019-02-26T03:21:52.428Z,100200.26
2019-02-26T03:24:03.574Z,100200.23
2019-02-26T03:26:17.676Z,100195.51
2019-02-26T03:28:28.188Z,100198.03
2019-02-26T03:30:43.840Z,100198.84
2019-02-26T03:32:58.650Z,100205.67
2019-02-26T03:35:46.039Z,100195.02
2019-02-26T03:37:58.151Z,100192.05
2019-02-26T03:40:51.993Z,100190.36
2019-02-26T03:43:05.462Z,100190.80
2019-02-26T03:45:23.835Z,100191.21
2019-02-26T03:47:29.564Z,100186.98
2019-02-26T03:49:42.248Z,100181.47
2019-02-26T03:51:53.085Z,100181.09
2019-02-26T03:54:03.907Z,100165.71
2019-02-26T03:56:56.357Z,100167.04
2019-02-26T03:59:09.546Z,100168.32
2019-02-26T04:01:21.618Z,100170.83
2019-02-26T04:03:34.687Z,100170.38
2019-02-26T04:05:45.318Z,100176.73
2019-02-26T04:07:58.927Z,100169.05
2019-02-26T04:10:52.897Z,100169.91
2019-02-26T04:13:03.221Z,100167.75
2019-02-26T04:15:57.115Z,100175.38
2019-02-26T04:18:08.379Z,100175.73
2019-02-26T04:20:19.199Z,100177.84
2019-02-26T04:23:14.178Z,100171.78
2019-02-26T04:26:04.107Z,100174.30
2019-02-26T04:28:57.410Z,100163.97
2019-02-26T04:31:52.179Z,100161.38
2019-02-26T04:34:43.376Z,100167.79
2019-02-26T04:37:35.245Z,100158.77
2019-02-26T04:40:28.364Z,100163.49
2019-02-26T04:43:18.806Z,100175.44
2019-02-26T04:46:10.898Z,100174.16
2019-02-26T04:49:03.704Z,100172.48
2019-02-26T04:51:14.529Z,100169.09
2019-02-26T04:53:28.217Z,100180.22
2019-02-26T04:55:39.107Z,100175.07
2019-02-26T04:58:34.427Z,100170.41
2019-02-26T05:00:45.200Z,100162.75
2019-02-26T05:02:56.018Z,100159.33
2019-02-26T05:05:51.446Z,100145.72
2019-02-26T05:08:04.058Z,100153.00
2019-02-26T05:10:13.906Z,100146.47
2019-02-26T05:12:25.445Z,100147.67
2019-02-26T05:14:37.422Z,100152.73
2019-02-26T05:16:48.216Z,100143.74
2019-02-26T05:18:59.055Z,100146.30
2019-02-26T05:21:10.869Z,100151.91
2019-02-26T05:23:23.263Z,100149.30
2019-02-26T05:25:39.259Z,100143.66
2019-02-26T05:27:50.225Z,100147.10
2019-02-26T05:30:00.814Z,100141.55
2019-02-26T05:32:11.705Z,100145.45
2019-02-26T05:34:23.174Z,100142.09
2019-02-26T05:36:37.280Z,100134.05
2019-02-26T05:38:49.259Z,100130.20
2019-02-26T05:41:00.662Z,100132.73
2019-02-26T05:43:11.507Z,100130.15
2019-02-26T05:45:23.833Z,100138.20
2019-02-26T05:47:35.006Z,100142.50
2019-02-26T05:49:46.001Z,100140.30
2019-02-26T05:52:01.033Z,100140.21
2019-02-26T05:54:12.188Z,100142.34
2019-02-26T05:56:24.050Z,100145.73
2019-02-26T05:58:36.284Z,100152.55
2019-02-26T06:00:47.709Z,100158.13
2019-02-26T06:02:58.510Z,100158.95
2019-02-26T06:05:11.622Z,100157.21
2019-02-26T06:07:24.461Z,100155.97
2019-02-26T06:09:34.753Z,100165.77
2019-02-26T06:11:49.374Z,100166.17
2019-02-26T06:14:01.333Z,100170.86
2019-02-26T06:16:11.015Z,100172.67
2019-02-26T06:18:21.831Z,100168.86
2019-02-26T06:20:36.095Z,100167.09
2019-02-26T06:22:45.362Z,100168.83
2019-02-26T06:24:59.505Z,100160.30
2019-02-26T06:27:13.111Z,100161.67
2019-02-26T06:29:22.606Z,100162.13
2019-02-26T06:31:34.393Z,100157.03
2019-02-26T06:33:47.525Z,100157.06
2019-02-26T06:35:59.843Z,100160.45
2019-02-26T06:38:11.690Z,100164.71
2019-02-26T06:40:23.354Z,100166.88
2019-02-26T06:42:35.515Z,100174.19
2019-02-26T06:44:48.873Z,100174.67
2019-02-26T06:47:00.327Z,100176.88
2019-02-26T06:49:12.324Z,100183.80
2019-02-26T06:51:24.321Z,100182.11
2019-02-26T06:53:35.842Z,100182.16
2019-02-26T06:55:46.657Z,100187.78
2019-02-26T06:58:38.137Z,100192.09
2019-02-26T07:00:54.715Z,100181.48
2019-02-26T07:03:44.596Z,100189.20
2019-02-26T07:05:55.414Z,100196.04
2019-02-26T07:08:06.666Z,100202.00
2019-02-26T07:10:23.668Z,100196.89
2019-02-26T07:12:31.850Z,100201.12
2019-02-26T07:14:42.663Z,100203.67
2019-02-26T07:16:53.477Z,100204.10
2019-02-26T07:19:06.399Z,100205.38
2019-02-26T07:21:17.015Z,100214.42
2019-02-26T07:23:29.762Z,100211.83
2019-02-26T07:25:42.176Z,100213.16
2019-02-26T07:27:55.441Z,100215.75
2019-02-26T07:30:47.597Z,100217.57
2019-02-26T07:32:58.423Z,100212.95
2019-02-26T07:35:11.078Z,100207.95
2019-02-26T07:37:21.959Z,100203.25
2019-02-26T07:39:32.760Z,100198.42
2019-02-26T07:41:44.640Z,100198.68
2019-02-26T07:43:56.300Z,100201.86
2019-02-26T07:46:09.386Z,100199.50
2019-02-26T07:48:21.263Z,100195.46
2019-02-26T07:50:37.454Z,100198.91
2019-02-26T07:52:47.218Z,100192.75
2019-02-26T07:54:58.001Z,100195.44
2019-02-26T07:57:08.864Z,100186.29
2019-02-26T07:59:27.412Z,100193.88
2019-02-26T08:01:32.459Z,100190.60
2019-02-26T08:03:44.053Z,100194.63
2019-02-26T08:05:55.985Z,100188.75
2019-02-26T08:08:06.800Z,100191.97
2019-02-26T08:10:19.521Z,100197.75
2019-02-26T08:12:32.703Z,100188.09
2019-02-26T08:14:45.232Z,100192.33
2019-02-26T08:16:56.763Z,100189.16
2019-02-26T08:19:08.440Z,100186.44
2019-02-26T08:21:21.747Z,100187.86
2019-02-26T08:23:31.984Z,100191.89
2019-02-26T08:25:42.772Z,100187.56
2019-02-26T08:27:54.688Z,100186.63
2019-02-26T08:30:49.901Z,100182.12
2019-02-26T08:33:02.659Z,100180.58
2019-02-26T08:35:17.873Z,100180.05
2019-02-26T08:37:26.328Z,100174.88
2019-02-26T08:39:38.002Z,100169.80
2019-02-26T08:42:09.704Z,100165.50
2019-02-26T08:44:20.516Z,100169.92
2019-02-26T08:46:31.467Z,100169.99
2019-02-26T08:48:45.531Z,100168.32
2019-02-26T08:50:55.796Z,100170.20
2019-02-26T08:53:07.718Z,100172.50
2019-02-26T08:55:21.510Z,100171.36
2019-02-26T08:57:31.275Z,100176.46
2019-02-26T08:59:44.178Z,100172.92
2019-02-26T09:01:54.933Z,100168.44
2019-02-26T09:04:05.746Z,100167.86
2019-02-26T09:06:16.565Z,100159.23
2019-02-26T09:08:27.362Z,100154.55
2019-02-26T09:10:38.741Z,100148.64
2019-02-26T09:12:51.859Z,100154.88
2019-02-26T09:15:45.237Z,100155.13
2019-02-26T09:17:56.044Z,100150.23
2019-02-26T09:20:26.725Z,100150.75
2019-02-26T09:22:37.543Z,100153.47
2019-02-26T09:24:49.459Z,100150.13
2019-02-26T09:27:03.289Z,100153.59
2019-02-26T09:29:15.530Z,100144.91
2019-02-26T09:31:26.583Z,100146.95
2019-02-26T09:33:38.701Z,100141.74
2019-02-26T09:35:52.045Z,100140.45
2019-02-26T09:38:02.933Z,100142.53
2019-02-26T09:40:57.093Z,100135.71
2019-02-26T09:43:08.091Z,100137.91
2019-02-26T09:46:00.570Z,100129.39
2019-02-26T09:48:12.227Z,100128.75
2019-02-26T09:50:24.116Z,100134.19
2019-02-26T09:52:35.040Z,100133.17
2019-02-26T09:54:48.116Z,100136.17
2019-02-26T09:56:58.581Z,100139.41
2019-02-26T09:59:10.288Z,100140.70
2019-02-26T10:01:22.098Z,100142.72
2019-02-26T10:03:36.756Z,100133.50
2019-02-26T10:05:47.680Z,100141.73
2019-02-26T10:08:00.464Z,100139.34
2019-02-26T10:10:33.185Z,100140.66
2019-02-26T10:12:43.641Z,100142.19
2019-02-26T10:14:55.714Z,100135.20
2019-02-26T10:17:09.081Z,100133.13
2019-02-26T10:19:19.934Z,100134.95
2019-02-26T10:21:33.123Z,100136.66
2019-02-26T10:23:47.193Z,100136.52
2019-02-26T10:25:57.910Z,100133.67
2019-02-26T10:28:11.417Z,100131.95
2019-02-26T10:30:21.666Z,100128.09
2019-02-26T10:32:32.882Z,100132.17
2019-02-26T10:34:45.184Z,100131.48
2019-02-26T10:36:55.969Z,100126.40
2019-02-26T10:39:08.312Z,100128.31
2019-02-26T10:41:21.113Z,100127.95
2019-02-26T10:43:32.377Z,100126.72
2019-02-26T10:45:44.799Z,100126.40
2019-02-26T10:47:56.904Z,100117.01
2019-02-26T10:50:51.878Z,100115.92
2019-02-26T10:53:09.727Z,100107.66
2019-02-26T10:55:17.622Z,100110.24
2019-02-26T10:57:30.646Z,100111.02
2019-02-26T10:59:44.017Z,100107.98
2019-02-26T11:01:55.265Z,100109.36
2019-02-26T11:04:06.992Z,100106.98
2019-02-26T11:06:25.497Z,100112.65
2019-02-26T11:08:36.289Z,100108.97
2019-02-26T11:10:49.673Z,100110.75
2019-02-26T11:12:59.911Z,100109.28
2019-02-26T11:15:53.869Z,100107.45
2019-02-26T11:18:05.046Z,100104.08
2019-02-26T11:20:59.286Z,100102.81
2019-02-26T11:23:13.257Z,100099.09
2019-02-26T11:25:24.872Z,100100.31
2019-02-26T11:27:37.867Z,100098.09
2019-02-26T11:29:48.549Z,100097.95
2019-02-26T11:32:01.507Z,100086.18
2019-02-26T11:34:13.383Z,100093.56
2019-02-26T11:36:25.121Z,100091.81
2019-02-26T11:38:39.574Z,100094.67
2019-02-26T11:40:49.749Z,100093.36
2019-02-26T11:43:10.899Z,100093.83
2019-02-26T11:45:35.154Z,100091.25
2019-02-26T11:48:28.937Z,100081.69
2019-02-26T11:50:44.265Z,100083.81
2019-02-26T11:52:54.969Z,100085.02
2019-02-26T11:55:49.348Z,100083.74
2019-02-26T11:58:00.096Z,100075.27
2019-02-26T12:00:51.076Z,100072.06
2019-02-26T12:03:01.984Z,100071.45
2019-02-26T12:05:12.881Z,100066.70
2019-02-26T12:07:25.590Z,100068.98
2019-02-26T12:09:40.146Z,100067.23
2019-02-26T12:11:49.141Z,100056.92
2019-02-26T12:13:59.965Z,100058.80
2019-02-26T12:16:10.759Z,100059.94
2019-02-26T12:18:22.506Z,100056.32
2019-02-26T12:20:35.566Z,100055.73
2019-02-26T12:22:49.666Z,100057.73
2019-02-26T12:25:01.861Z,100043.29
2019-02-26T12:27:17.661Z,100045.02
2019-02-26T12:29:26.421Z,100040.66
2019-02-26T12:31:39.098Z,100041.83
2019-02-26T12:33:50.980Z,100045.87
2019-02-26T12:36:02.574Z,100036.27
2019-02-26T12:38:18.862Z,100032.53
2019-02-26T12:40:27.267Z,100026.91
2019-02-26T12:42:38.125Z,100025.12
2019-02-26T12:44:48.919Z,100021.83
2019-02-26T12:47:00.429Z,100024.83
2019-02-26T12:49:14.862Z,100023.78
2019-02-26T12:51:26.274Z,100021.16
2019-02-26T12:53:57.851Z,100016.20
2019-02-26T12:56:08.990Z,100015.56
2019-02-26T12:58:26.194Z,100005.81
2019-02-26T13:00:34.869Z,100005.81
2019-02-26T13:02:49.400Z,99999.37
2019-02-26T13:04:59.703Z,100000.68
2019-02-26T13:07:10.550Z,99999.30
2019-02-26T13:09:26.469Z,99994.88
2019-02-26T13:11:34.185Z,99991.67
2019-02-26T13:13:48.082Z,99993.28
2019-02-26T13:15:57.708Z,99987.19
2019-02-26T13:18:08.504Z,99984.09
2019-02-26T13:21:03.950Z,99978.47
2019-02-26T13:23:20.083Z,99976.02
2019-02-26T13:25:26.996Z,99968.91
2019-02-26T13:27:43.206Z,99966.28
2019-02-26T13:29:56.830Z,99962.89
2019-02-26T13:32:08.021Z,99959.31
2019-02-26T13:34:17.297Z,99959.42
2019-02-26T13:36:28.161Z,99954.72
2019-02-26T13:38:44.863Z,99958.29
2019-02-26T13:40:51.614Z,99950.77
2019-02-26T13:43:44.069Z,99951.53
2019-02-26T13:45:54.881Z,99952.20
2019-02-26T13:48:05.828Z,99947.67
2019-02-26T13:50:38.952Z,99944.97
2019-02-26T13:52:49.251Z,99949.38
2019-02-26T13:55:00.262Z,99945.33
2019-02-26T13:57:11.062Z,99938.29
2019-02-26T13:59:21.902Z,99945.98
2019-02-26T14:01:32.813Z,99940.41
2019-02-26T14:03:43.655Z,99933.22
2019-02-26T14:05:54.456Z,99929.75
2019-02-26T14:08:05.382Z,99929.86
2019-02-26T14:10:57.831Z,99922.71
2019-02-26T14:13:08.662Z,99917.67
2019-02-26T14:15:39.543Z,99918.98
2019-02-26T14:17:50.425Z,99916.55
2019-02-26T14:20:01.234Z,99913.26
2019-02-26T14:22:12.035Z,99918.92
2019-02-26T14:24:24.409Z,99913.26
2019-02-26T14:26:35.554Z,99914.46
2019-02-26T14:28:48.351Z,99909.97
2019-02-26T14:30:59.253Z,99908.08
2019-02-26T14:33:10.051Z,99905.09
2019-02-26T14:35:20.881Z,99897.68
2019-02-26T14:37:31.706Z,99893.08
2019-02-26T14:39:42.498Z,99895.75
2019-02-26T14:41:53.325Z,99892.86
2019-02-26T14:44:04.135Z,99886.52
2019-02-26T14:46:14.964Z,99882.86
2019-02-26T14:48:25.832Z,99889.69
2019-02-26T14:50:36.648Z,99890.64
2019-02-26T14:52:47.569Z,99881.73
2019-02-26T14:54:58.401Z,99880.94
2019-02-26T14:57:09.231Z,99872.58
2019-02-26T14:59:20.153Z,99872.88
2019-02-26T15:01:30.975Z,99868.46
2019-02-26T15:03:41.831Z,99864.52
2019-02-26T15:05:54.555Z,99863.09
2019-02-26T15:08:07.264Z,99860.22
2019-02-26T15:10:59.728Z,99856.64
2019-02-26T15:13:10.538Z,99850.73
2019-02-26T15:15:21.490Z,99855.14
2019-02-26T15:17:32.301Z,99857.48
2019-02-26T15:19:49.596Z,99846.14
2019-02-26T15:21:57.256Z,99850.36
2019-02-26T15:24:08.598Z,99847.55
2019-02-26T15:26:19.422Z,99841.25
2019-02-26T15:28:30.329Z,99840.04
2019-02-26T15:30:41.175Z,99841.53
2019-02-26T15:32:52.213Z,99843.86
2019-02-26T15:35:44.721Z,99853.05
2019-02-26T15:37:55.508Z,99847.44
2019-02-26T15:40:28.151Z,99851.37
2019-02-26T15:42:38.978Z,99845.16
2019-02-26T15:44:49.770Z,99847.23
2019-02-26T15:47:02.289Z,99847.95
2019-02-26T15:49:13.324Z,99845.91
2019-02-26T15:51:24.152Z,99849.25
2019-02-26T15:53:34.982Z,99849.83
2019-02-26T15:55:45.771Z,99850.95
2019-02-26T15:57:56.594Z,99856.91
2019-02-26T16:00:49.051Z,99853.16
2019-02-26T16:03:00.119Z,99847.71
2019-02-26T16:05:12.659Z,99846.02
2019-02-26T16:10:44.087Z,99849.22
2019-02-26T16:15:55.651Z,99844.76
2019-02-26T16:18:06.581Z,99844.09
2019-02-26T16:20:59.004Z,99847.34
2019-02-26T16:23:09.895Z,99846.30
2019-02-26T16:25:20.841Z,99850.47
2019-02-26T16:27:37.540Z,99854.67
2019-02-26T16:29:44.433Z,99852.78
2019-02-26T16:31:57.222Z,99849.86
2019-02-26T16:34:07.991Z,99847.34
2019-02-26T16:36:18.816Z,99843.44
2019-02-26T16:38:29.633Z,99853.88
2019-02-26T16:40:40.463Z,99850.53
2019-02-26T16:42:51.278Z,99854.92
2019-02-26T16:45:45.646Z,99854.00
2019-02-26T16:47:57.379Z,99852.89
2019-02-26T16:50:50.959Z,99857.00
2019-02-26T16:53:01.766Z,99860.62
2019-02-26T16:55:17.092Z,99864.94
2019-02-26T16:57:28.168Z,99862.95
2019-02-26T16:59:40.876Z,99866.56
2019-02-26T17:01:54.980Z,99868.39
2019-02-26T17:04:07.599Z,99869.98
2019-02-26T17:06:20.511Z,99875.41
2019-02-26T17:08:31.042Z,99874.06
2019-02-26T17:10:41.955Z,99871.96
2019-02-26T17:16:06.778Z,99877.31
2019-02-26T17:18:17.623Z,99877.89
2019-02-26T17:20:28.622Z,99879.24
2019-02-26T17:22:41.050Z,99883.72
2019-02-26T17:24:53.664Z,99881.25
2019-02-26T17:27:05.740Z,99873.97
2019-02-26T17:29:19.605Z,99888.16
2019-02-26T17:31:30.774Z,99885.66
2019-02-26T17:33:44.723Z,99884.80
2019-02-26T17:35:55.980Z,99896.86
2019-02-26T17:38:06.902Z,99898.52
2019-02-26T17:40:37.586Z,99897.07
2019-02-26T17:42:48.862Z,99893.47
2019-02-26T17:45:01.214Z,99894.94
2019-02-26T17:47:13.960Z,99904.70
2019-02-26T17:49:24.977Z,99902.69
2019-02-26T17:51:35.919Z,99903.66
2019-02-26T17:53:46.719Z,99908.28
2019-02-26T17:55:57.517Z,99907.02
2019-02-26T17:58:10.572Z,99908.53
2019-02-26T18:01:02.815Z,99906.35
2019-02-26T18:03:13.648Z,99907.99
2019-02-26T18:05:24.458Z,99907.73
2019-02-26T18:07:38.295Z,99909.30
2019-02-26T18:09:48.062Z,99913.67
2019-02-26T18:11:59.790Z,99913.54
2019-02-26T18:14:11.744Z,99908.60
2019-02-26T18:16:22.568Z,99911.73
2019-02-26T18:18:34.415Z,99909.52
2019-02-26T18:20:46.247Z,99909.30
2019-02-26T18:22:59.836Z,99902.03
2019-02-26T18:25:51.426Z,99901.31
2019-02-26T18:28:02.406Z,99908.28
2019-02-26T18:30:54.870Z,99911.77
2019-02-26T18:33:05.717Z,99906.39
2019-02-26T18:35:16.558Z,99903.09
2019-02-26T18:37:27.469Z,99900.08
2019-02-26T18:39:38.357Z,99903.03
2019-02-26T18:41:50.791Z,99898.89
2019-02-26T18:44:21.769Z,99898.89
2019-02-26T18:46:33.784Z,99894.66
2019-02-26T18:48:48.337Z,99904.03
2019-02-26T18:50:59.665Z,99905.55
2019-02-26T18:53:11.714Z,99909.23
2019-02-26T18:55:27.887Z,99911.91
2019-02-26T18:57:36.407Z,99905.03
2019-02-26T18:59:47.268Z,99910.66
2019-02-26T19:01:58.098Z,99916.06
2019-02-26T19:04:09.000Z,99914.38
2019-02-26T19:06:19.862Z,99918.42
2019-02-26T19:08:30.792Z,99922.15
2019-02-26T19:10:41.672Z,99920.62
2019-02-26T19:12:52.572Z,99918.99
2019-02-26T19:15:47.565Z,99915.73
2019-02-26T19:18:02.254Z,99915.45
2019-02-26T19:20:52.209Z,99918.77
2019-02-26T19:23:03.132Z,99917.50
2019-02-26T19:25:14.068Z,99916.25
2019-02-26T19:27:24.907Z,99913.36
2019-02-26T19:29:35.726Z,99911.79
2019-02-26T19:31:46.581Z,99917.06
2019-02-26T19:33:57.408Z,99909.41
2019-02-26T19:36:10.701Z,99918.27
2019-02-26T19:38:20.983Z,99916.33
2019-02-26T19:41:13.490Z,99914.39
2019-02-26T19:43:26.082Z,99919.63
2019-02-26T19:45:37.119Z,99918.06
2019-02-26T19:47:47.982Z,99917.66
2019-02-26T19:49:58.776Z,99912.47
2019-02-26T19:52:09.643Z,99919.81
2019-02-26T19:54:20.463Z,99918.69
2019-02-26T19:56:31.468Z,99917.48
2019-02-26T19:58:42.282Z,99918.11
2019-02-26T20:00:53.830Z,99917.22
2019-02-26T20:03:06.268Z,99916.86
2019-02-26T20:05:18.663Z,99912.20
2019-02-26T20:07:32.210Z,99905.97
2019-02-26T20:09:42.251Z,99910.92
2019-02-26T20:11:53.591Z,99907.61
2019-02-26T20:14:05.826Z,99904.28
2019-02-26T20:16:16.689Z,99908.27
2019-02-26T20:18:27.528Z,99899.33
2019-02-26T20:20:40.980Z,99902.30
2019-02-26T20:22:51.147Z,99895.39
2019-02-26T20:25:43.629Z,99897.58
2019-02-26T20:27:56.264Z,99898.09
2019-02-26T20:30:48.893Z,99894.47
2019-02-26T20:33:01.526Z,99894.33
2019-02-26T20:35:12.691Z,99901.09
2019-02-26T20:37:24.418Z,99897.17
2019-02-26T20:39:36.340Z,99897.52
2019-02-26T20:41:47.145Z,99889.66
2019-02-26T20:43:57.972Z,99893.98
2019-02-26T20:46:08.818Z,99897.97
2019-02-26T20:48:19.629Z,99897.22
2019-02-26T20:50:30.573Z,99897.06
2019-02-26T20:52:41.512Z,99894.71
2019-02-26T20:54:52.297Z,99889.19
2019-02-26T20:57:03.940Z,99887.59
2019-02-26T20:59:17.990Z,99898.13
2019-02-26T21:01:29.675Z,99891.00
2019-02-26T21:03:41.416Z,99882.50
2019-02-26T21:05:52.250Z,99882.05
2019-02-26T21:08:03.081Z,99884.19
2019-02-26T21:10:55.577Z,99894.03
2019-02-26T21:13:06.461Z,99888.14
2019-02-26T21:15:37.179Z,99891.73
2019-02-26T21:17:47.997Z,99896.52
2019-02-26T21:19:58.831Z,99896.89
2019-02-26T21:22:09.641Z,99899.06
2019-02-26T21:24:20.465Z,99892.17
2019-02-26T21:26:31.294Z,99888.67
2019-02-26T21:28:42.147Z,99893.02
2019-02-26T21:30:52.982Z,99896.97
2019-02-26T21:33:03.790Z,99896.20
2019-02-26T21:35:14.705Z,99895.53
2019-02-26T21:37:25.558Z,99894.80
2019-02-26T21:39:36.377Z,99892.63
2019-02-26T21:41:47.211Z,99888.69
2019-02-26T21:43:58.046Z,99883.56
2019-02-26T21:46:08.881Z,99885.48
2019-02-26T21:48:39.563Z,99887.88
2019-02-26T21:50:50.389Z,99887.88
2019-02-26T21:53:01.230Z,99882.79
2019-02-26T21:55:55.563Z,99877.23
2019-02-26T21:58:06.407Z,99881.94
2019-02-26T22:00:58.864Z,99883.73
2019-02-26T22:03:09.728Z,99888.95
2019-02-26T22:05:20.587Z,99886.91
2019-02-26T22:07:31.395Z,99888.59
2019-02-26T22:09:42.179Z,99883.77
2019-02-26T22:11:53.287Z,99881.53
2019-02-26T22:14:04.198Z,99882.89
2019-02-26T22:16:17.497Z,99886.75
2019-02-26T22:18:30.899Z,99885.11
2019-02-26T22:20:40.465Z,99890.33
2019-02-26T22:22:51.404Z,99885.23
2019-02-26T22:25:43.850Z,99884.86
2019-02-26T22:27:54.665Z,99880.91
2019-02-26T22:30:47.102Z,99878.70
2019-02-26T22:32:57.950Z,99879.97
2019-02-26T22:35:08.833Z,99876.07
2019-02-26T22:37:19.654Z,99880.84
2019-02-26T22:39:30.466Z,99885.30
2019-02-26T22:41:41.293Z,99886.66
2019-02-26T22:43:52.119Z,99886.69
2019-02-26T22:46:02.910Z,99884.17
2019-02-26T22:48:14.234Z,99888.49
2019-02-26T22:50:27.259Z,99887.67
2019-02-26T22:52:39.187Z,99887.28
2019-02-26T22:54:50.042Z,99897.22
2019-02-26T22:57:00.853Z,99893.38
2019-02-26T22:59:11.651Z,99887.82
2019-02-26T23:02:04.137Z,99889.08
2019-02-26T23:04:19.306Z,99889.54
2019-02-26T23:06:29.481Z,99894.69
2019-02-26T23:08:44.319Z,99890.92
2019-02-26T23:10:56.886Z,99894.03
2019-02-26T23:13:06.353Z,99894.63
2019-02-26T23:15:17.184Z,99895.11
2019-02-26T23:20:00.419Z,99903.69
2019-02-26T23:22:11.325Z,99905.01
2019-02-26T23:24:22.245Z,99910.14
2019-02-26T23:29:05.617Z,99900.73
2019-02-26T23:31:58.085Z,99905.44
2019-02-26T23:34:08.901Z,99900.75
2019-02-26T23:36:19.695Z,99904.14
2019-02-26T23:38:50.357Z,99907.96
2019-02-26T23:41:01.170Z,99909.20
2019-02-26T23:43:12.524Z,99900.13
2019-02-26T23:45:24.920Z,99906.95
2019-02-26T23:47:35.725Z,99895.39
2019-02-26T23:49:47.790Z,99900.16
2019-02-26T23:51:59.219Z,99892.91
2019-02-26T23:54:10.026Z,99897.27
2019-02-26T23:56:20.857Z,99901.19
2019-02-26T23:58:31.759Z,99898.65
